Terminal Aerodrome Forecast
Issued by NWS

Home | Current Version | Previous Version | Text Only | Print | Product List | Glossary Off
Versions: 1 2 3 4 5 6 7 8 9 10 11 12 13 14

000
FTUS43 KMPX 160500
TAFRWF
TAF
KRWF 160539Z 1606/1706 33020G28KT 1 1/2SM -SN BR OVC012
      TEMPO 1606/1608 3SM -SN OVC020
     FM160800 33021G28KT P6SM OVC015
     FM161800 32015G21KT P6SM OVC025
     FM170000 31010KT P6SM SCT025=

USA.gov is the U.S. government's official web portal to all federal, state and local government web resources and services.